sensor_id;sensor_type;location;lat;lon;timestamp;pressure;altitude;pressure_sealevel;temperature;humidity
60871;BME280;46714;50.118;14.462;2023-07-20T00:00:22;98418.44;;;18.36;66.57
60871;BME280;46714;50.118;14.462;2023-07-20T00:02:50;98420.94;;;18.33;66.65
60871;BME280;46714;50.118;14.462;2023-07-20T00:05:16;98427.84;;;18.30;66.55
60871;BME280;46714;50.118;14.462;2023-07-20T00:07:46;98443.00;;;18.28;66.56
60871;BME280;46714;50.118;14.462;2023-07-20T00:10:12;98443.84;;;18.28;66.77
60871;BME280;46714;50.118;14.462;2023-07-20T00:12:38;98449.34;;;18.28;66.72
60871;BME280;46714;50.118;14.462;2023-07-20T00:15:04;98451.81;;;18.30;67.12
60871;BME280;46714;50.118;14.462;2023-07-20T00:17:29;98464.19;;;18.32;66.98
60871;BME280;46714;50.118;14.462;2023-07-20T00:19:55;98460.59;;;18.32;66.88
60871;BME280;46714;50.118;14.462;2023-07-20T00:22:20;98462.28;;;18.33;66.92
60871;BME280;46714;50.118;14.462;2023-07-20T00:24:45;98460.91;;;18.30;67.00
60871;BME280;46714;50.118;14.462;2023-07-20T00:27:11;98463.66;;;18.30;66.96
60871;BME280;46714;50.118;14.462;2023-07-20T00:29:36;98462.81;;;18.30;67.14
60871;BME280;46714;50.118;14.462;2023-07-20T00:32:02;98460.91;;;18.25;67.45
60871;BME280;46714;50.118;14.462;2023-07-20T00:34:29;98455.97;;;18.22;67.71
60871;BME280;46714;50.118;14.462;2023-07-20T00:36:55;98455.47;;;18.15;67.73
60871;BME280;46714;50.118;14.462;2023-07-20T00:39:21;98453.56;;;18.10;67.92
60871;BME280;46714;50.118;14.462;2023-07-20T00:41:46;98451.66;;;18.06;67.80
60871;BME280;46714;50.118;14.462;2023-07-20T00:44:11;98456.06;;;18.02;67.70
60871;BME280;46714;50.118;14.462;2023-07-20T00:46:37;98450.00;;;17.99;67.95
60871;BME280;46714;50.118;14.462;2023-07-20T00:49:02;98451.94;;;17.99;68.32
60871;BME280;46714;50.118;14.462;2023-07-20T00:51:28;98454.97;;;17.97;68.37
60871;BME280;46714;50.118;14.462;2023-07-20T00:53:54;98454.72;;;17.94;68.30
60871;BME280;46714;50.118;14.462;2023-07-20T00:56:20;98459.69;;;17.92;68.21
60871;BME280;46714;50.118;14.462;2023-07-20T00:58:46;98457.47;;;17.89;68.11
60871;BME280;46714;50.118;14.462;2023-07-20T01:01:12;98462.19;;;17.83;68.67
60871;BME280;46714;50.118;14.462;2023-07-20T01:03:37;98462.72;;;17.80;68.86
60871;BME280;46714;50.118;14.462;2023-07-20T01:14:10;98459.69;;;17.76;69.32
60871;BME280;46714;50.118;14.462;2023-07-20T01:16:37;98463.25;;;17.77;69.40
60871;BME280;46714;50.118;14.462;2023-07-20T01:19:02;98469.06;;;17.75;69.54
60871;BME280;46714;50.118;14.462;2023-07-20T01:21:51;98482.28;;;17.73;69.47
60871;BME280;46714;50.118;14.462;2023-07-20T01:24:35;98469.91;;;17.71;69.56
60871;BME280;46714;50.118;14.462;2023-07-20T01:32:57;98482.28;;;17.63;69.92
60871;BME280;46714;50.118;14.462;2023-07-20T01:35:25;98478.72;;;17.63;70.04
60871;BME280;46714;50.118;14.462;2023-07-20T01:37:53;98477.59;;;17.64;70.04
60871;BME280;46714;50.118;14.462;2023-07-20T01:40:20;98485.03;;;17.63;70.28
60871;BME280;46714;50.118;14.462;2023-07-20T01:42:48;98490.25;;;17.65;70.48
60871;BME280;46714;50.118;14.462;2023-07-20T01:45:14;98496.03;;;17.63;70.34
60871;BME280;46714;50.118;14.462;2023-07-20T01:47:39;98490.84;;;17.62;70.50
60871;BME280;46714;50.118;14.462;2023-07-20T01:50:05;98493.28;;;17.63;70.17
60871;BME280;46714;50.118;14.462;2023-07-20T01:52:31;98489.72;;;17.63;70.19
60871;BME280;46714;50.118;14.462;2023-07-20T01:54:57;98490.84;;;17.62;70.13
60871;BME280;46714;50.118;14.462;2023-07-20T01:57:22;98491.66;;;17.62;70.42
60871;BME280;46714;50.118;14.462;2023-07-20T01:59:48;98488.34;;;17.60;70.28
60871;BME280;46714;50.118;14.462;2023-07-20T02:02:13;98492.19;;;17.59;70.09
60871;BME280;46714;50.118;14.462;2023-07-20T02:04:39;98490.81;;;17.56;70.11
60871;BME280;46714;50.118;14.462;2023-07-20T02:07:04;98478.44;;;17.54;70.38
60871;BME280;46714;50.118;14.462;2023-07-20T02:09:30;98483.41;;;17.52;70.12
60871;BME280;46714;50.118;14.462;2023-07-20T02:11:55;98477.34;;;17.50;70.33
60871;BME280;46714;50.118;14.462;2023-07-20T02:14:21;98480.09;;;17.50;70.66
60871;BME280;46714;50.118;14.462;2023-07-20T02:16:47;98468.84;;;17.46;70.66
60871;BME280;46714;50.118;14.462;2023-07-20T02:19:17;98474.34;;;17.41;70.39
60871;BME280;46714;50.118;14.462;2023-07-20T02:21:43;98476.25;;;17.41;70.58
60871;BME280;46714;50.118;14.462;2023-07-20T02:24:09;98474.34;;;17.41;70.37
60871;BME280;46714;50.118;14.462;2023-07-20T02:26:34;98477.91;;;17.42;71.02
60871;BME280;46714;50.118;14.462;2023-07-20T02:28:59;98471.59;;;17.41;71.25
60871;BME280;46714;50.118;14.462;2023-07-20T02:31:25;98478.72;;;17.42;71.34
60871;BME280;46714;50.118;14.462;2023-07-20T02:33:50;98486.16;;;17.42;70.74
60871;BME280;46714;50.118;14.462;2023-07-20T02:36:15;98483.97;;;17.44;70.97
60871;BME280;46714;50.118;14.462;2023-07-20T02:38:41;98477.66;;;17.43;70.92
60871;BME280;46714;50.118;14.462;2023-07-20T02:41:07;98483.16;;;17.43;70.55
60871;BME280;46714;50.118;14.462;2023-07-20T02:43:32;98475.16;;;17.42;70.54
60871;BME280;46714;50.118;14.462;2023-07-20T02:45:58;98488.09;;;17.41;70.07
60871;BME280;46714;50.118;14.462;2023-07-20T02:48:23;98476.53;;;17.39;70.52
60871;BME280;46714;50.118;14.462;2023-07-20T02:50:48;98471.56;;;17.36;70.92
60871;BME280;46714;50.118;14.462;2023-07-20T02:53:14;98481.22;;;17.33;70.56
60871;BME280;46714;50.118;14.462;2023-07-20T02:55:39;98479.84;;;17.31;70.96
60871;BME280;46714;50.118;14.462;2023-07-20T02:58:04;98482.03;;;17.29;70.67
60871;BME280;46714;50.118;14.462;2023-07-20T03:00:30;98496.09;;;17.27;70.51
60871;BME280;46714;50.118;14.462;2023-07-20T03:02:55;98497.16;;;17.26;70.84
60871;BME280;46714;50.118;14.462;2023-07-20T03:05:21;98488.09;;;17.26;70.90
60871;BME280;46714;50.118;14.462;2023-07-20T03:07:50;98494.41;;;17.26;71.22
60871;BME280;46714;50.118;14.462;2023-07-20T03:10:16;98501.84;;;17.26;71.04
60871;BME280;46714;50.118;14.462;2023-07-20T03:12:42;98500.47;;;17.23;71.51
60871;BME280;46714;50.118;14.462;2023-07-20T03:15:07;98498.53;;;17.24;71.70
60871;BME280;46714;50.118;14.462;2023-07-20T03:17:33;98502.94;;;17.25;71.98
60871;BME280;46714;50.118;14.462;2023-07-20T03:19:59;98510.66;;;17.23;71.79
60871;BME280;46714;50.118;14.462;2023-07-20T03:22:25;98507.63;;;17.19;72.12
60871;BME280;46714;50.118;14.462;2023-07-20T03:24:51;98513.94;;;17.14;72.02
60871;BME280;46714;50.118;14.462;2023-07-20T03:27:17;98519.19;;;17.16;72.01
60871;BME280;46714;50.118;14.462;2023-07-20T03:29:43;98520.25;;;17.15;72.39
60871;BME280;46714;50.118;14.462;2023-07-20T03:32:09;98525.50;;;17.16;72.32
60871;BME280;46714;50.118;14.462;2023-07-20T03:34:34;98521.63;;;17.17;72.52
60871;BME280;46714;50.118;14.462;2023-07-20T03:37:00;98509.25;;;17.20;72.56
60871;BME280;46714;50.118;14.462;2023-07-20T03:39:26;98509.00;;;17.22;72.39
60871;BME280;46714;50.118;14.462;2023-07-20T03:41:52;98505.97;;;17.23;72.38
60871;BME280;46714;50.118;14.462;2023-07-20T03:44:17;98513.13;;;17.24;72.17
60871;BME280;46714;50.118;14.462;2023-07-20T03:46:43;98513.94;;;17.25;72.07
60871;BME280;46714;50.118;14.462;2023-07-20T03:49:08;98510.94;;;17.21;72.17
60871;BME280;46714;50.118;14.462;2023-07-20T03:51:35;98517.50;;;17.20;72.15
60871;BME280;46714;50.118;14.462;2023-07-20T03:54:00;98516.69;;;17.20;72.31
60871;BME280;46714;50.118;14.462;2023-07-20T03:56:26;98524.69;;;17.16;72.09
60871;BME280;46714;50.118;14.462;2023-07-20T03:58:51;98525.25;;;17.18;72.42
60871;BME280;46714;50.118;14.462;2023-07-20T04:01:17;98531.56;;;17.19;72.41
60871;BME280;46714;50.118;14.462;2023-07-20T04:03:42;98521.38;;;17.19;72.27
60871;BME280;46714;50.118;14.462;2023-07-20T04:06:08;98528.00;;;17.18;72.44
60871;BME280;46714;50.118;14.462;2023-07-20T04:08:33;98524.69;;;17.16;72.90
60871;BME280;46714;50.118;14.462;2023-07-20T04:11:01;98527.69;;;17.14;72.33
60871;BME280;46714;50.118;14.462;2023-07-20T04:13:27;98531.56;;;17.13;72.92
60871;BME280;46714;50.118;14.462;2023-07-20T04:15:53;98528.25;;;17.11;72.88
60871;BME280;46714;50.118;14.462;2023-07-20T04:18:18;98524.41;;;17.07;73.14
60871;BME280;46714;50.118;14.462;2023-07-20T04:20:43;98531.53;;;17.08;73.20
60871;BME280;46714;50.118;14.462;2023-07-20T04:23:09;98529.91;;;17.07;73.33
60871;BME280;46714;50.118;14.462;2023-07-20T04:25:34;98539.78;;;17.08;73.11
60871;BME280;46714;50.118;14.462;2023-07-20T04:28:04;98537.03;;;17.08;73.50
60871;BME280;46714;50.118;14.462;2023-07-20T04:30:33;98549.16;;;17.12;73.40
60871;BME280;46714;50.118;14.462;2023-07-20T04:32:59;98543.09;;;17.15;73.47
60871;BME280;46714;50.118;14.462;2023-07-20T04:38:18;98545.88;;;17.21;73.39
60871;BME280;46714;50.118;14.462;2023-07-20T04:40:45;98550.53;;;17.25;73.28
60871;BME280;46714;50.118;14.462;2023-07-20T04:43:11;98548.34;;;17.27;73.39
60871;BME280;46714;50.118;14.462;2023-07-20T04:45:37;98545.31;;;17.29;73.30
60871;BME280;46714;50.118;14.462;2023-07-20T04:48:02;98543.09;;;17.31;73.04
60871;BME280;46714;50.118;14.462;2023-07-20T04:50:28;98548.06;;;17.34;73.05
60871;BME280;46714;50.118;14.462;2023-07-20T04:52:54;98548.06;;;17.39;73.05
60871;BME280;46714;50.118;14.462;2023-07-20T04:55:19;98540.94;;;17.43;72.85
60871;BME280;46714;50.118;14.462;2023-07-20T04:57:44;98540.38;;;17.46;72.62
60871;BME280;46714;50.118;14.462;2023-07-20T05:00:10;98537.06;;;17.49;72.59
60871;BME280;46714;50.118;14.462;2023-07-20T05:02:38;98545.84;;;17.56;72.76
60871;BME280;46714;50.118;14.462;2023-07-20T05:05:03;98545.59;;;17.58;71.98
60871;BME280;46714;50.118;14.462;2023-07-20T05:07:30;98545.88;;;17.62;72.16
60871;BME280;46714;50.118;14.462;2023-07-20T05:09:56;98543.13;;;17.67;72.11
60871;BME280;46714;50.118;14.462;2023-07-20T05:12:22;98545.84;;;17.72;72.11
60871;BME280;46714;50.118;14.462;2023-07-20T05:14:47;98548.59;;;17.77;71.71
60871;BME280;46714;50.118;14.462;2023-07-20T05:17:12;98547.78;;;17.76;71.52
60871;BME280;46714;50.118;14.462;2023-07-20T05:19:38;98550.03;;;17.85;71.74
60871;BME280;46714;50.118;14.462;2023-07-20T05:22:03;98548.91;;;17.86;71.31
60871;BME280;46714;50.118;14.462;2023-07-20T05:24:30;98551.66;;;17.86;71.45
60871;BME280;46714;50.118;14.462;2023-07-20T05:26:56;98555.25;;;17.81;71.25
60871;BME280;46714;50.118;14.462;2023-07-20T05:29:21;98554.69;;;17.84;71.14
60871;BME280;46714;50.118;14.462;2023-07-20T05:31:46;98552.47;;;17.86;71.14
60871;BME280;46714;50.118;14.462;2023-07-20T05:34:12;98558.81;;;17.87;71.79
60871;BME280;46714;50.118;14.462;2023-07-20T05:36:37;98559.09;;;17.90;71.41
60871;BME280;46714;50.118;14.462;2023-07-20T05:39:02;98553.84;;;17.94;71.39
60871;BME280;46714;50.118;14.462;2023-07-20T05:41:28;98554.94;;;17.98;71.73
60871;BME280;46714;50.118;14.462;2023-07-20T05:43:53;98554.63;;;18.05;71.63
60871;BME280;46714;50.118;14.462;2023-07-20T05:46:19;98551.06;;;18.14;70.80
60871;BME280;46714;50.118;14.462;2023-07-20T05:48:44;98555.72;;;18.19;70.65
60871;BME280;46714;50.118;14.462;2023-07-20T05:51:09;98554.03;;;18.23;70.70
60871;BME280;46714;50.118;14.462;2023-07-20T05:53:35;98557.09;;;18.21;70.19
60871;BME280;46714;50.118;14.462;2023-07-20T05:56:01;98561.50;;;18.17;69.63
60871;BME280;46714;50.118;14.462;2023-07-20T05:58:27;98552.69;;;18.15;70.29
60871;BME280;46714;50.118;14.462;2023-07-20T06:00:53;98564.00;;;18.19;70.09
60871;BME280;46714;50.118;14.462;2023-07-20T06:03:18;98562.31;;;18.28;69.96
60871;BME280;46714;50.118;14.462;2023-07-20T06:05:46;98561.44;;;18.38;69.64
60871;BME280;46714;50.118;14.462;2023-07-20T06:08:11;98575.75;;;18.45;69.27
60871;BME280;46714;50.118;14.462;2023-07-20T06:10:37;98570.50;;;18.49;69.61
60871;BME280;46714;50.118;14.462;2023-07-20T06:13:02;98561.91;;;18.55;69.18
60871;BME280;46714;50.118;14.462;2023-07-20T06:15:28;98571.59;;;18.58;69.05
60871;BME280;46714;50.118;14.462;2023-07-20T06:17:56;98571.28;;;18.65;68.56
60871;BME280;46714;50.118;14.462;2023-07-20T06:20:23;98569.84;;;18.72;68.08
60871;BME280;46714;50.118;14.462;2023-07-20T06:22:50;98570.66;;;18.83;68.31
60871;BME280;46714;50.118;14.462;2023-07-20T06:25:15;98570.34;;;18.90;67.81
60871;BME280;46714;50.118;14.462;2023-07-20T06:27:41;98575.28;;;18.98;67.14
60871;BME280;46714;50.118;14.462;2023-07-20T06:30:07;98566.69;;;19.04;66.77
60871;BME280;46714;50.118;14.462;2023-07-20T06:32:33;98564.69;;;19.10;65.78
60871;BME280;46714;50.118;14.462;2023-07-20T06:34:58;98574.38;;;19.13;66.01
60871;BME280;46714;50.118;14.462;2023-07-20T06:37:24;98574.28;;;19.23;65.80
60871;BME280;46714;50.118;14.462;2023-07-20T06:39:49;98574.88;;;19.20;65.15
60871;BME280;46714;50.118;14.462;2023-07-20T06:42:15;98581.25;;;19.15;64.51
60871;BME280;46714;50.118;14.462;2023-07-20T06:44:40;98569.66;;;19.13;64.08
60871;BME280;46714;50.118;14.462;2023-07-20T06:47:06;98564.69;;;19.10;63.85
60871;BME280;46714;50.118;14.462;2023-07-20T06:49:31;98567.75;;;19.09;64.43
60871;BME280;46714;50.118;14.462;2023-07-20T06:51:57;98564.47;;;19.07;64.16
60871;BME280;46714;50.118;14.462;2023-07-20T06:54:22;98550.91;;;19.10;64.13
60871;BME280;46714;50.118;14.462;2023-07-20T06:56:47;98550.31;;;19.18;63.89
60871;BME280;46714;50.118;14.462;2023-07-20T06:59:13;98549.94;;;19.30;63.01
60871;BME280;46714;50.118;14.462;2023-07-20T07:01:38;98552.09;;;19.38;63.53
60871;BME280;46714;50.118;14.462;2023-07-20T07:04:04;98557.63;;;19.38;62.49
60871;BME280;46714;50.118;14.462;2023-07-20T07:06:30;98559.59;;;19.33;63.09
60871;BME280;46714;50.118;14.462;2023-07-20T07:08:56;98564.56;;;19.31;62.94
60871;BME280;46714;50.118;14.462;2023-07-20T07:11:21;98571.50;;;19.28;62.96
60871;BME280;46714;50.118;14.462;2023-07-20T07:13:47;98579.78;;;19.28;62.61
60871;BME280;46714;50.118;14.462;2023-07-20T07:16:17;98575.91;;;19.29;61.91
60871;BME280;46714;50.118;14.462;2023-07-20T07:18:47;98580.03;;;19.32;63.19
60871;BME280;46714;50.118;14.462;2023-07-20T07:21:12;98579.41;;;19.40;61.98
60871;BME280;46714;50.118;14.462;2023-07-20T07:23:38;98572.47;;;19.48;62.39
60871;BME280;46714;50.118;14.462;2023-07-20T07:26:04;98565.94;;;19.67;60.94
60871;BME280;46714;50.118;14.462;2023-07-20T07:28:30;98571.69;;;19.76;60.97
60871;BME280;46714;50.118;14.462;2023-07-20T07:30:57;98569.38;;;19.88;60.21
60871;BME280;46714;50.118;14.462;2023-07-20T07:33:22;98568.22;;;19.95;61.00
60871;BME280;46714;50.118;14.462;2023-07-20T07:35:52;98566.47;;;20.04;60.74
60871;BME280;46714;50.118;14.462;2023-07-20T07:38:18;98573.25;;;20.17;59.06
60871;BME280;46714;50.118;14.462;2023-07-20T07:40:44;98569.88;;;20.20;59.36
60871;BME280;46714;50.118;14.462;2023-07-20T07:43:09;98577.03;;;20.26;58.40
60871;BME280;46714;50.118;14.462;2023-07-20T07:45:35;98571.91;;;20.38;57.50
60871;BME280;46714;50.118;14.462;2023-07-20T07:48:04;98582.91;;;20.43;57.22
60871;BME280;46714;50.118;14.462;2023-07-20T07:50:30;98585.72;;;20.38;56.16
60871;BME280;46714;50.118;14.462;2023-07-20T07:52:56;98578.03;;;20.35;57.13
60871;BME280;46714;50.118;14.462;2023-07-20T07:55:21;98581.94;;;20.29;56.42
60871;BME280;46714;50.118;14.462;2023-07-20T07:57:47;98571.50;;;20.26;57.57
60871;BME280;46714;50.118;14.462;2023-07-20T08:00:13;98577.22;;;20.35;57.02
60871;BME280;46714;50.118;14.462;2023-07-20T08:02:39;98586.25;;;20.40;57.06
60871;BME280;46714;50.118;14.462;2023-07-20T08:05:06;98575.19;;;20.40;57.42
60871;BME280;46714;50.118;14.462;2023-07-20T08:07:32;98577.16;;;20.40;56.95
60871;BME280;46714;50.118;14.462;2023-07-20T08:09:57;98585.69;;;20.43;57.03
60871;BME280;46714;50.118;14.462;2023-07-20T08:12:22;98585.09;;;20.46;56.66
60871;BME280;46714;50.118;14.462;2023-07-20T08:14:48;98589.13;;;20.54;56.74
60871;BME280;46714;50.118;14.462;2023-07-20T08:17:13;98588.19;;;20.69;55.83
60871;BME280;46714;50.118;14.462;2023-07-20T08:19:39;98588.63;;;20.76;55.54
60871;BME280;46714;50.118;14.462;2023-07-20T08:22:06;98588.72;;;20.90;55.56
60871;BME280;46714;50.118;14.462;2023-07-20T08:24:32;98587.22;;;20.98;54.89
60871;BME280;46714;50.118;14.462;2023-07-20T08:26:58;98588.66;;;20.95;54.58
60871;BME280;46714;50.118;14.462;2023-07-20T08:29:24;98587.31;;;20.92;55.12
60871;BME280;46714;50.118;14.462;2023-07-20T08:31:49;98593.09;;;20.96;55.38
60871;BME280;46714;50.118;14.462;2023-07-20T08:34:14;98588.44;;;20.91;54.55
60871;BME280;46714;50.118;14.462;2023-07-20T08:36:40;98598.53;;;21.01;55.68
60871;BME280;46714;50.118;14.462;2023-07-20T08:39:05;98594.13;;;21.00;53.99
60871;BME280;46714;50.118;14.462;2023-07-20T08:41:33;98589.53;;;20.90;53.54
60871;BME280;46714;50.118;14.462;2023-07-20T08:44:00;98590.97;;;20.88;54.72
60871;BME280;46714;50.118;14.462;2023-07-20T08:46:26;98587.75;;;20.81;54.96
60871;BME280;46714;50.118;14.462;2023-07-20T08:48:53;98585.25;;;20.79;54.99
60871;BME280;46714;50.118;14.462;2023-07-20T08:51:21;98582.22;;;20.81;55.11
60871;BME280;46714;50.118;14.462;2023-07-20T08:53:46;98587.91;;;20.89;54.74
60871;BME280;46714;50.118;14.462;2023-07-20T08:56:13;98588.59;;;21.00;54.63
60871;BME280;46714;50.118;14.462;2023-07-20T08:58:41;98593.09;;;21.15;53.43
60871;BME280;46714;50.118;14.462;2023-07-20T09:01:08;98589.50;;;21.15;53.41
60871;BME280;46714;50.118;14.462;2023-07-20T09:03:36;98583.59;;;21.21;53.83
60871;BME280;46714;50.118;14.462;2023-07-20T09:06:04;98589.97;;;21.22;53.31
60871;BME280;46714;50.118;14.462;2023-07-20T09:08:30;98585.25;;;21.22;53.00
60871;BME280;46714;50.118;14.462;2023-07-20T09:10:56;98578.88;;;21.22;52.55
60871;BME280;46714;50.118;14.462;2023-07-20T09:13:21;98585.75;;;21.24;53.11
60871;BME280;46714;50.118;14.462;2023-07-20T09:15:47;98582.19;;;21.24;51.46
60871;BME280;46714;50.118;14.462;2023-07-20T09:18:25;98584.94;;;21.24;50.29
60871;BME280;46714;50.118;14.462;2023-07-20T09:20:52;98589.06;;;21.26;50.81
60871;BME280;46714;50.118;14.462;2023-07-20T09:23:19;98584.09;;;21.23;50.75
60871;BME280;46714;50.118;14.462;2023-07-20T09:25:44;98589.59;;;21.28;50.91
60871;BME280;46714;50.118;14.462;2023-07-20T09:28:15;98574.59;;;21.29;50.60
60871;BME280;46714;50.118;14.462;2023-07-20T09:30:41;98571.22;;;21.32;50.02
60871;BME280;46714;50.118;14.462;2023-07-20T09:33:06;98574.75;;;21.38;49.88
60871;BME280;46714;50.118;14.462;2023-07-20T09:35:43;98574.25;;;21.55;50.46
60871;BME280;46714;50.118;14.462;2023-07-20T09:38:08;98570.09;;;21.71;49.59
60871;BME280;46714;50.118;14.462;2023-07-20T09:40:37;98568.50;;;21.84;49.75
60871;BME280;46714;50.118;14.462;2023-07-20T09:43:09;98571.38;;;21.79;49.40
60871;BME280;46714;50.118;14.462;2023-07-20T09:45:44;98578.16;;;21.87;48.53
60871;BME280;46714;50.118;14.462;2023-07-20T09:48:10;98579.56;;;21.84;48.91
60871;BME280;46714;50.118;14.462;2023-07-20T09:50:39;98561.63;;;21.82;48.14
60871;BME280;46714;50.118;14.462;2023-07-20T09:53:12;98558.06;;;21.95;48.14
60871;BME280;46714;50.118;14.462;2023-07-20T09:55:39;98556.75;;;22.06;48.21
60871;BME280;46714;50.118;14.462;2023-07-20T09:58:06;98563.75;;;22.17;46.95
60871;BME280;46714;50.118;14.462;2023-07-20T10:00:35;98563.06;;;22.40;47.66
60871;BME280;46714;50.118;14.462;2023-07-20T10:03:03;98570.06;;;22.51;46.26
60871;BME280;46714;50.118;14.462;2023-07-20T10:05:31;98573.56;;;22.56;45.76
60871;BME280;46714;50.118;14.462;2023-07-20T10:08:02;98568.31;;;22.41;44.75
60871;BME280;46714;50.118;14.462;2023-07-20T10:10:29;98570.78;;;22.29;45.59
60871;BME280;46714;50.118;14.462;2023-07-20T10:12:57;98571.28;;;22.31;46.39
60871;BME280;46714;50.118;14.462;2023-07-20T10:15:36;98574.47;;;22.24;45.47
60871;BME280;46714;50.118;14.462;2023-07-20T10:21:00;98568.31;;;22.27;46.61
60871;BME280;46714;50.118;14.462;2023-07-20T10:23:26;98561.44;;;22.25;45.62
60871;BME280;46714;50.118;14.462;2023-07-20T10:25:54;98567.50;;;22.27;46.18
60871;BME280;46714;50.118;14.462;2023-07-20T10:28:21;98564.72;;;22.27;46.31
60871;BME280;46714;50.118;14.462;2023-07-20T10:30:48;98565.03;;;22.39;46.68
60871;BME280;46714;50.118;14.462;2023-07-20T10:33:14;98566.06;;;22.43;45.70
60871;BME280;46714;50.118;14.462;2023-07-20T10:43:47;98574.78;;;22.36;44.93
60871;BME280;46714;50.118;14.462;2023-07-20T10:46:14;98569.25;;;22.36;44.87
60871;BME280;46714;50.118;14.462;2023-07-20T10:51:24;98580.22;;;22.42;47.07
60871;BME280;46714;50.118;14.462;2023-07-20T10:53:50;98579.59;;;22.31;47.36
60871;BME280;46714;50.118;14.462;2023-07-20T10:56:19;98580.22;;;22.28;47.09
60871;BME280;46714;50.118;14.462;2023-07-20T10:58:46;98571.06;;;22.27;46.64
60871;BME280;46714;50.118;14.462;2023-07-20T11:01:15;98575.19;;;22.30;47.26
60871;BME280;46714;50.118;14.462;2023-07-20T11:03:42;98573.88;;;22.41;46.25
60871;BME280;46714;50.118;14.462;2023-07-20T11:11:42;98568.94;;;22.52;45.93
60871;BME280;46714;50.118;14.462;2023-07-20T11:14:08;98572.63;;;22.61;44.32
60871;BME280;46714;50.118;14.462;2023-07-20T11:16:43;98566.97;;;22.52;45.09
60871;BME280;46714;50.118;14.462;2023-07-20T11:19:19;98563.06;;;22.53;44.08
60871;BME280;46714;50.118;14.462;2023-07-20T11:21:54;98562.47;;;22.56;45.52
60871;BME280;46714;50.118;14.462;2023-07-20T11:24:21;98550.22;;;22.57;45.42
60871;BME280;46714;50.118;14.462;2023-07-20T11:26:48;98556.50;;;22.63;46.36
60871;BME280;46714;50.118;14.462;2023-07-20T11:29:18;98559.47;;;22.67;45.00
60871;BME280;46714;50.118;14.462;2023-07-20T11:31:46;98548.47;;;22.62;44.35
60871;BME280;46714;50.118;14.462;2023-07-20T11:34:16;98540.69;;;22.64;44.14
60871;BME280;46714;50.118;14.462;2023-07-20T11:36:44;98551.16;;;22.67;45.03
60871;BME280;46714;50.118;14.462;2023-07-20T11:39:11;98543.03;;;22.70;45.37
60871;BME280;46714;50.118;14.462;2023-07-20T11:41:43;98542.38;;;22.87;44.21
60871;BME280;46714;50.118;14.462;2023-07-20T11:44:12;98540.41;;;23.02;43.29
60871;BME280;46714;50.118;14.462;2023-07-20T11:46:41;98549.59;;;23.02;42.54
60871;BME280;46714;50.118;14.462;2023-07-20T11:49:08;98543.91;;;22.93;42.83
60871;BME280;46714;50.118;14.462;2023-07-20T11:51:33;98531.88;;;22.98;43.63
60871;BME280;46714;50.118;14.462;2023-07-20T11:54:01;98528.59;;;22.96;43.17
60871;BME280;46714;50.118;14.462;2023-07-20T11:56:27;98519.88;;;23.03;42.78
60871;BME280;46714;50.118;14.462;2023-07-20T11:59:00;98520.38;;;23.05;41.62
60871;BME280;46714;50.118;14.462;2023-07-20T12:01:26;98522.31;;;23.04;42.47
60871;BME280;46714;50.118;14.462;2023-07-20T12:04:00;98526.41;;;23.20;44.17
60871;BME280;46714;50.118;14.462;2023-07-20T12:06:29;98519.84;;;23.39;42.46
60871;BME280;46714;50.118;14.462;2023-07-20T12:08:57;98507.72;;;23.57;41.93
60871;BME280;46714;50.118;14.462;2023-07-20T12:11:30;98517.28;;;23.74;42.00
60871;BME280;46714;50.118;14.462;2023-07-20T12:14:06;98519.25;;;23.73;40.85
60871;BME280;46714;50.118;14.462;2023-07-20T12:16:32;98516.94;;;23.67;41.21
60871;BME280;46714;50.118;14.462;2023-07-20T12:19:02;98508.34;;;23.54;41.02
60871;BME280;46714;50.118;14.462;2023-07-20T12:21:28;98503.69;;;23.41;41.50
60871;BME280;46714;50.118;14.462;2023-07-20T12:23:55;98513.41;;;23.30;42.32
60871;BME280;46714;50.118;14.462;2023-07-20T12:26:23;98519.81;;;23.16;41.35
60871;BME280;46714;50.118;14.462;2023-07-20T12:28:50;98516.47;;;23.06;41.70
60871;BME280;46714;50.118;14.462;2023-07-20T12:31:15;98527.78;;;23.09;41.98
60871;BME280;46714;50.118;14.462;2023-07-20T12:33:41;98525.00;;;23.09;42.28
60871;BME280;46714;50.118;14.462;2023-07-20T12:36:08;98526.31;;;23.12;42.49
60871;BME280;46714;50.118;14.462;2023-07-20T12:38:33;98528.16;;;23.16;42.73
60871;BME280;46714;50.118;14.462;2023-07-20T12:41:02;98502.91;;;23.27;42.43
60871;BME280;46714;50.118;14.462;2023-07-20T12:43:28;98512.06;;;23.50;41.90
60871;BME280;46714;50.118;14.462;2023-07-20T12:45:54;98508.84;;;23.79;43.02
60871;BME280;46714;50.118;14.462;2023-07-20T12:48:20;98512.69;;;23.92;40.53
60871;BME280;46714;50.118;14.462;2023-07-20T12:50:46;98503.72;;;23.95;41.18
60871;BME280;46714;50.118;14.462;2023-07-20T12:53:11;98507.16;;;24.00;41.72
60871;BME280;46714;50.118;14.462;2023-07-20T12:55:37;98509.47;;;23.98;41.04
60871;BME280;46714;50.118;14.462;2023-07-20T12:58:04;98520.06;;;23.96;40.48
60871;BME280;46714;50.118;14.462;2023-07-20T13:00:30;98518.56;;;23.90;40.49
60871;BME280;46714;50.118;14.462;2023-07-20T13:02:55;98502.69;;;23.91;40.99
60871;BME280;46714;50.118;14.462;2023-07-20T13:05:21;98507.81;;;23.97;40.79
60871;BME280;46714;50.118;14.462;2023-07-20T13:07:46;98506.19;;;23.96;39.93
60871;BME280;46714;50.118;14.462;2023-07-20T13:10:11;98496.88;;;24.10;40.89
60871;BME280;46714;50.118;14.462;2023-07-20T13:12:37;98494.69;;;24.29;40.28
60871;BME280;46714;50.118;14.462;2023-07-20T13:15:04;98496.91;;;24.50;39.77
60871;BME280;46714;50.118;14.462;2023-07-20T13:17:38;98484.16;;;24.57;40.10
60871;BME280;46714;50.118;14.462;2023-07-20T13:20:04;98493.50;;;24.61;38.23
60871;BME280;46714;50.118;14.462;2023-07-20T13:22:32;98487.28;;;24.56;38.12